METAR Data
IDs: Format: Raw Decoded Include TAF

Data at: 2209 UTC 10 May 2021

K5SM 102155Z AUTO 25007KT 150V290 5SM BR 00/M02 A3011 RMK AO2
K5SM 102135Z AUTO 26007G18KT 210V310 10SM 00/M03 A3011 RMK AO2
K5SM 102115Z AUTO 23008G16KT 210V270 10SM 00/M03 A3011 RMK AO2
K5SM 102055Z AUTO 23008G16KT 180V260 7SM 00/M03 A3011 RMK AO2 LTG DSNT N AND NW
K5SM 102035Z AUTO 22014G21KT 5SM HZ 00/M03 A3010 RMK AO2 LTG DSNT N AND NW
K5SM 102015Z AUTO 22013G19KT 10SM 00/M02 A3009 RMK AO2 LTG DSNT NW
K5SM 101955Z AUTO 24012G20KT 180V270 7SM M01/M03 A3010 RMK AO2 LTG DSNT NW
K5SM 101935Z AUTO 23010G21KT 200V260 7SM M02/M03 A3010 RMK AO2
K5SM 101915Z AUTO 23014G22KT 180V280 4SM -SN M02/M04 A3010 RMK AO2
K5SM 101855Z AUTO 22012G23KT 7SM M02/M04 A3009 RMK AO2
K5SM 101835Z AUTO 23012G19KT 210V280 5SM BR M02/M04 A3010 RMK AO2
K5SM 101815Z AUTO 24008G16KT 210V280 4SM BR M02/M03 A3011 RMK AO2
K5SM 101755Z AUTO 22010G17KT 180V240 1 1/2SM -VCTSSN M02/M03 A3011 RMK AO2 LTG DSNT N
K5SM 101735Z AUTO 22006KT 2SM -RA M01/M03 A3011 RMK AO2
K5SM 101715Z AUTO 21006KT 1 1/2SM -RA M02/M03 A3011 RMK AO2
K5SM 101655Z AUTO 23005KT 1 1/2SM -SN M02/M03 A3011 RMK AO2
K5SM 101635Z AUTO 25004KT 1 3/4SM UP M03/M04 A3011 RMK AO2 VIS 1/2V3
K5SM 101615Z AUTO 26008G15KT 210V290 3/4SM -SN M03/M04 A3011 RMK AO2
K5SM 101555Z AUTO 26008G16KT 210V300 1/2SM SN M03/M05 A3011 RMK AO2
K5SM 101535Z AUTO 26009G15KT 200V280 1/4SM SN M03/M04 A3011 RMK AO2
K5SM 101515Z AUTO 24007G15KT 1/4SM SN M03/M04 A3011 RMK AO2
K5SM 101455Z AUTO 24005KT 1/4SM SN M03/M04 A3011 RMK AO2
K5SM 101435Z AUTO 23007KT 1/4SM SN M03/M05 A3011 RMK AO2
K5SM 101415Z AUTO 25007KT 200V300 1/2SM SN M03/M04 A3011 RMK AO2
K5SM 101355Z AUTO 25005KT 1/4SM SN M03/M05 A3011 RMK AO2
K5SM 101335Z AUTO 26005KT 1/4SM SN M03/M05 A3011 RMK AO2
K5SM 101315Z AUTO 26006KT 1/2SM SN M03/M05 A3011 RMK AO2
K5SM 101255Z AUTO 26003KT 1SM -SN M03/M05 A3010 RMK AO2
K5SM 101235Z AUTO 24003KT 1 3/4SM -SN M03/M05 A3010 RMK AO2 VIS 1V3
K5SM 101215Z AUTO 27004KT 1 1/4SM -SN M04/M05 A3011 RMK AO2
K5SM 101155Z AUTO 28004KT 3/4SM SN M04/M05 A3010 RMK AO2
K5SM 101135Z AUTO 27004KT 5SM BR M04/M05 A3010 RMK AO2
K5SM 101115Z AUTO 23003KT 7SM M04/M05 A3010 RMK AO2
K5SM 101055Z AUTO 21007KT 7SM UP M04/M05 A3010 RMK AO2
K5SM 101035Z AUTO 21006KT 10SM M03/M05 A3011 RMK AO2
K5SM 101015Z AUTO 21004KT 7SM -SN M03/M05 A3011 RMK AO2
K5SM 100955Z AUTO 20003KT 10SM -SN M03/M05 A3011 RMK AO2
K5SM 100935Z AUTO 20003KT 10SM M03/M05 A3011 RMK AO2
K5SM 100915Z AUTO 21005KT 10SM M03/M05 A3012 RMK AO2
K5SM 100855Z AUTO 21005KT 7SM M03/M04 A3011 RMK AO2
K5SM 100835Z AUTO 22007KT 2SM -SN M03/M04 A3011 RMK AO2
K5SM 100815Z AUTO 22009G14KT 1 1/2SM -SN M03/M05 A3012 RMK AO2
K5SM 100755Z AUTO 22008G16KT 3SM -SN M03/M05 A3014 RMK AO2
K5SM 100735Z AUTO 21007KT 4SM -SN M02/M06 A3013 RMK AO2
K5SM 100715Z AUTO 21006KT 3SM -SN M02/M06 A3013 RMK AO2 LTG DSNT SE
K5SM 100655Z AUTO 00000KT 10SM M02/M07 A3014 RMK AO2 LTG DSNT SE
K5SM 100635Z AUTO 00000KT 10SM M02/M07 A3014 RMK AO2
K5SM 100615Z AUTO 22004KT 10SM VCTS M01/M07 A3015 RMK AO2
K5SM 100555Z AUTO 22004KT 10SM M01/M08 A3015 RMK AO2
K5SM 100535Z AUTO 23005KT 10SM M01/M08 A3016 RMK AO2 LTG DSNT S
K5SM 100515Z AUTO 00000KT 10SM M01/M08 A3017 RMK AO2 LTG DSNT SE
K5SM 100455Z AUTO 12004KT 10SM M01/M08 A3017 RMK AO2
K5SM 100435Z AUTO 10003KT 10SM M01/M08 A3016 RMK AO2
K5SM 100415Z AUTO 00000KT 10SM M01/M10 A3016 RMK AO2
K5SM 100355Z AUTO 00000KT 10SM M01/M10 A3015 RMK AO2
K5SM 100335Z AUTO 25003KT 10SM M01/M10 A3015 RMK AO2
K5SM 100315Z AUTO 26003KT 10SM M01/M10 A3015 RMK AO2
K5SM 100255Z AUTO 00000KT 10SM M01/M10 A3015 RMK AO2
K5SM 100235Z AUTO 24005KT 10SM M01/M09 A3015 RMK AO2
K5SM 100215Z AUTO 24006KT 10SM 00/M09 A3014 RMK AO2
K5SM 100155Z AUTO 24006G19KT 10SM 00/M08 A3014 RMK AO2
K5SM 100135Z AUTO 24007KT 210V290 10SM 00/M08 A3013 RMK AO2
K5SM 100115Z AUTO 24009G20KT 210V270 10SM 00/M10 A3013 RMK AO2
K5SM 100055Z AUTO 24009G19KT 210V270 10SM 00/M09 A3013 RMK AO2
K5SM 100035Z AUTO 24010G18KT 200V260 10SM 00/M09 A3013 RMK AO2
K5SM 100015Z AUTO 24010G17KT 220V290 10SM 00/M09 A3013 RMK AO2
K5SM 092355Z AUTO 23011G21KT 10SM 00/M08 A3013 RMK AO2
K5SM 092335Z AUTO 23008G16KT 10SM 00/M08 A3013 RMK AO2
K5SM 092315Z AUTO 22008G21KT 10SM 01/M08 A3013 RMK AO2
K5SM 092255Z AUTO 23009G17KT 10SM 01/M09 A3013 RMK AO2
K5SM 092235Z AUTO 24010G21KT 200V260 10SM 01/M09 A3013 RMK AO2
K5SM 092215Z AUTO 23011G19KT 10SM 00/M09 A3013 RMK AO2
K5SM 092155Z AUTO 23015G28KT 10SM 00/M09 A3013 RMK AO2
K5SM 092135Z AUTO 23016G27KT 10SM 00/M09 A3013 RMK AO2
K5SM 092115Z AUTO 24016G28KT 190V280 10SM 00/M10 A3013 RMK AO2
K5SM 092055Z AUTO 23012G24KT 180V260 10SM 01/M10 A3013 RMK AO2
K5SM 092035Z AUTO 23013G24KT 210V270 10SM 01/M11 A3014 RMK AO2
K5SM 092015Z AUTO 23009G17KT 190V280 10SM 02/M12 A3014 RMK AO2
K5SM 091955Z AUTO 24007G22KT 190V290 10SM 02/M13 A3014 RMK AO2
K5SM 091935Z AUTO 22008G17KT 10SM 01/M13 A3015 RMK AO2
K5SM 091915Z AUTO 24008G15KT 210V270 10SM 01/M12 A3015 RMK AO2
K5SM 091855Z AUTO 27005KT 10SM 00/M12 A3016 RMK AO2
K5SM 091835Z AUTO 25005KT 10SM 00/M13 A3016 RMK AO2
K5SM 091815Z AUTO 23007KT 10SM 00/M13 A3016 RMK AO2
K5SM 091755Z AUTO 24006G15KT 10SM 00/M13 A3016 RMK AO2
K5SM 091735Z AUTO 23010KT 10SM 00/M13 A3016 RMK AO2
K5SM 091715Z AUTO 23010G15KT 10SM 00/M13 A3016 RMK AO2
K5SM 091655Z AUTO 23006KT 10SM 00/M13 A3016 RMK AO2
K5SM 091635Z AUTO 23005KT 10SM 00/M14 A3016 RMK AO2
K5SM 091615Z AUTO 24006KT 10SM 00/M15 A3016 RMK AO2
K5SM 091555Z AUTO 25004KT 10SM 00/M14 A3016 RMK AO2
K5SM 091535Z AUTO 21003KT 10SM M01/M13 A3016 RMK AO2
K5SM 091515Z AUTO 19004KT 10SM M01/M15 A3016 RMK AO2
K5SM 091455Z AUTO 00000KT 10SM M02/M13 A3016 RMK AO2
K5SM 091435Z AUTO 00000KT 10SM M03/M14 A3016 RMK AO2
K5SM 091415Z AUTO 00000KT 10SM M03/M14 A3016 RMK AO2
K5SM 091355Z AUTO 00000KT 10SM M03/M13 A3016 RMK AO2
K5SM 091335Z AUTO 00000KT 10SM M04/M13 A3016 RMK AO2
K5SM 091315Z AUTO 00000KT 10SM M05/M15 A3016 RMK AO2
K5SM 091255Z AUTO 00000KT 10SM M05/M13 A3016 RMK AO2
K5SM 091235Z AUTO 00000KT 10SM M05/M16 A3015 RMK AO2
K5SM 091215Z AUTO 00000KT 10SM M05/M16 A3015 RMK AO2
K5SM 091155Z AUTO 00000KT 10SM M05/M16 A3015 RMK AO2
K5SM 091135Z AUTO 00000KT 10SM M05/M16 A3015 RMK AO2
K5SM 091115Z AUTO 00000KT 10SM M05/M15 A3015 RMK AO2
K5SM 091055Z AUTO 32005KT 10SM M05/M16 A3014 RMK AO2
K5SM 091035Z AUTO 28006KT 10SM M05/M16 A3014 RMK AO2
K5SM 091015Z AUTO 29005KT 10SM M04/M16 A3014 RMK AO2